createdAt,value
2018-08-30T00:00:08.558Z,1003.5
2018-08-30T00:01:09.938Z,1003.5
2018-08-30T00:02:11.305Z,1003.5
2018-08-30T00:03:12.688Z,1003.5
2018-08-30T00:04:14.051Z,1003.5
2018-08-30T00:05:15.413Z,1003.5
2018-08-30T00:06:16.777Z,1003.5
2018-08-30T00:07:18.148Z,1003.5
2018-08-30T00:08:19.514Z,1003.5
2018-08-30T00:09:20.888Z,1003.5
2018-08-30T00:10:22.256Z,1003.5
2018-08-30T00:11:23.602Z,1003.6
2018-08-30T00:12:24.977Z,1003.5
2018-08-30T00:13:26.341Z,1003.6
2018-08-30T00:14:27.703Z,1003.6
2018-08-30T00:15:29.056Z,1003.6
2018-08-30T00:16:30.488Z,1003.6
2018-08-30T00:17:31.850Z,1003.6
2018-08-30T00:18:33.218Z,1003.6
2018-08-30T00:19:34.583Z,1003.6
2018-08-30T00:20:35.947Z,1003.6
2018-08-30T00:21:37.308Z,1003.7
2018-08-30T00:22:38.671Z,1003.7
2018-08-30T00:23:40.022Z,1003.7
2018-08-30T00:24:41.383Z,1003.7
2018-08-30T00:25:42.742Z,1003.7
2018-08-30T00:26:44.113Z,1003.7
2018-08-30T00:27:45.476Z,1003.7
2018-08-30T00:28:46.833Z,1003.7
2018-08-30T00:29:48.193Z,1003.7
2018-08-30T00:30:49.556Z,1003.8
2018-08-30T00:31:50.940Z,1003.7
2018-08-30T00:32:52.301Z,1003.8
2018-08-30T00:33:53.677Z,1003.7
2018-08-30T00:34:55.029Z,1003.7
2018-08-30T00:35:56.405Z,1003.7
2018-08-30T00:36:57.764Z,1003.7
2018-08-30T00:37:59.125Z,1003.8
2018-08-30T00:39:00.497Z,1003.7
2018-08-30T00:40:01.859Z,1003.8
2018-08-30T00:41:03.218Z,1003.8
2018-08-30T00:42:04.588Z,1003.8
2018-08-30T00:43:05.961Z,1003.8
2018-08-30T00:44:07.322Z,1003.8
2018-08-30T00:45:08.676Z,1003.8
2018-08-30T00:46:10.044Z,1003.8
2018-08-30T00:47:11.407Z,1003.7
2018-08-30T00:48:12.771Z,1003.8
2018-08-30T00:49:14.133Z,1003.8
2018-08-30T00:50:15.499Z,1003.7
2018-08-30T00:51:16.853Z,1003.7
2018-08-30T00:52:18.232Z,1003.7
2018-08-30T00:53:19.591Z,1003.7
2018-08-30T00:54:20.961Z,1003.8
2018-08-30T00:55:22.316Z,1003.8
2018-08-30T00:56:23.686Z,1003.8
2018-08-30T00:57:25.046Z,1003.8
2018-08-30T00:58:26.409Z,1003.8
2018-08-30T00:59:27.762Z,1003.9
2018-08-30T01:00:29.128Z,1003.9
2018-08-30T01:01:30.502Z,1003.9
2018-08-30T01:02:31.854Z,1003.9
2018-08-30T01:03:33.214Z,1003.9
2018-08-30T01:04:34.572Z,1003.9
2018-08-30T01:05:35.966Z,1003.9
2018-08-30T01:06:37.354Z,1004.0
2018-08-30T01:07:38.701Z,1004.0
2018-08-30T01:08:40.071Z,1004.1
2018-08-30T01:09:41.432Z,1004.1
2018-08-30T01:10:42.792Z,1004.1
2018-08-30T01:11:44.156Z,1004.1
2018-08-30T01:12:45.533Z,1004.1
2018-08-30T01:13:46.903Z,1004.1
2018-08-30T01:14:48.278Z,1004.1
2018-08-30T01:15:49.647Z,1004.1
2018-08-30T01:16:51.013Z,1004.1
2018-08-30T01:17:52.388Z,1004.1
2018-08-30T01:18:53.743Z,1004.1
2018-08-30T01:19:55.120Z,1004.1
2018-08-30T01:20:56.478Z,1004.1
2018-08-30T01:21:57.843Z,1004.1
2018-08-30T01:22:59.199Z,1004.2
2018-08-30T01:24:00.573Z,1004.1
2018-08-30T01:25:01.942Z,1004.1
2018-08-30T01:26:03.307Z,1004.2
2018-08-30T01:27:04.659Z,1004.2
2018-08-30T01:28:06.023Z,1004.1
2018-08-30T01:29:07.382Z,1004.2
2018-08-30T01:30:08.751Z,1004.2
2018-08-30T01:31:10.109Z,1004.2
2018-08-30T01:32:11.469Z,1004.2
2018-08-30T01:33:12.840Z,1004.3
2018-08-30T01:34:14.196Z,1004.3
2018-08-30T01:35:15.555Z,1004.3
2018-08-30T01:36:16.916Z,1004.3
2018-08-30T01:37:18.287Z,1004.3
2018-08-30T01:38:19.644Z,1004.3
2018-08-30T01:39:20.999Z,1004.3
2018-08-30T01:40:22.393Z,1004.3
2018-08-30T01:41:23.798Z,1004.4
2018-08-30T01:42:25.249Z,1004.4
2018-08-30T01:43:26.745Z,1004.4
2018-08-30T01:44:28.077Z,1004.4
2018-08-30T01:45:29.446Z,1004.4
2018-08-30T01:46:30.817Z,1004.4
2018-08-30T01:47:32.172Z,1004.4
2018-08-30T01:48:33.527Z,1004.4
2018-08-30T01:49:34.897Z,1004.4
2018-08-30T01:50:36.262Z,1004.5
2018-08-30T01:51:37.633Z,1004.5
2018-08-30T01:52:38.992Z,1004.5
2018-08-30T01:53:40.358Z,1004.5
2018-08-30T01:54:41.719Z,1004.5
2018-08-30T01:55:43.072Z,1004.5
2018-08-30T01:56:44.439Z,1004.5
2018-08-30T01:57:45.804Z,1004.5
2018-08-30T01:58:47.171Z,1004.5
2018-08-30T01:59:48.592Z,1004.5
2018-08-30T02:00:49.959Z,1004.5
2018-08-30T02:01:51.308Z,1004.5
2018-08-30T02:02:52.688Z,1004.5
2018-08-30T02:03:54.042Z,1004.5
2018-08-30T02:04:55.407Z,1004.5
2018-08-30T02:05:56.774Z,1004.5
2018-08-30T02:06:58.139Z,1004.5
2018-08-30T02:07:59.517Z,1004.5
2018-08-30T02:09:00.881Z,1004.6
2018-08-30T02:10:02.242Z,1004.5
2018-08-30T02:11:03.620Z,1004.5
2018-08-30T02:12:04.985Z,1004.5
2018-08-30T02:13:06.350Z,1004.5
2018-08-30T02:14:07.717Z,1004.5
2018-08-30T02:15:09.074Z,1004.5
2018-08-30T02:16:10.428Z,1004.5
2018-08-30T02:17:11.790Z,1004.6
2018-08-30T02:18:13.157Z,1004.6
2018-08-30T02:19:14.645Z,1004.6
2018-08-30T02:20:16.015Z,1004.6
2018-08-30T02:21:17.380Z,1004.7
2018-08-30T02:22:18.752Z,1004.7
2018-08-30T02:23:20.123Z,1004.7
2018-08-30T02:24:21.478Z,1004.7
2018-08-30T02:25:22.836Z,1004.7
2018-08-30T02:26:24.225Z,1004.7
2018-08-30T02:27:25.570Z,1004.7
2018-08-30T02:28:26.943Z,1004.7
2018-08-30T02:29:28.303Z,1004.7
2018-08-30T02:30:29.673Z,1004.7
2018-08-30T02:31:31.021Z,1004.8
2018-08-30T02:32:32.393Z,1004.8
2018-08-30T02:33:33.755Z,1004.8
2018-08-30T02:34:35.161Z,1004.8
2018-08-30T02:35:36.498Z,1004.8
2018-08-30T02:36:37.844Z,1004.8
2018-08-30T02:37:39.210Z,1004.8
2018-08-30T02:38:40.559Z,1004.8
2018-08-30T02:39:41.923Z,1004.8
2018-08-30T02:40:43.329Z,1004.8
2018-08-30T02:41:44.690Z,1004.8
2018-08-30T02:42:46.055Z,1004.8
2018-08-30T02:43:47.418Z,1004.8
2018-08-30T02:44:48.784Z,1004.8
2018-08-30T02:45:50.178Z,1004.8
2018-08-30T02:46:51.529Z,1004.9
2018-08-30T02:47:52.888Z,1004.9
2018-08-30T02:48:54.293Z,1004.9
2018-08-30T02:49:55.670Z,1004.8
2018-08-30T02:50:57.030Z,1004.9
2018-08-30T02:51:58.419Z,1004.9
2018-08-30T02:52:59.778Z,1004.9
2018-08-30T02:54:01.143Z,1004.9
2018-08-30T02:55:02.500Z,1004.9
2018-08-30T02:56:03.861Z,1004.9
2018-08-30T02:57:05.231Z,1004.9
2018-08-30T02:58:06.591Z,1004.9
2018-08-30T02:59:07.955Z,1005.0
2018-08-30T03:00:09.316Z,1004.9
2018-08-30T03:01:10.673Z,1004.9
2018-08-30T03:02:12.036Z,1004.9
2018-08-30T03:03:13.408Z,1004.9
2018-08-30T03:04:14.763Z,1004.9
2018-08-30T03:05:16.125Z,1004.9
2018-08-30T03:06:17.480Z,1004.9
2018-08-30T03:07:18.840Z,1004.9
2018-08-30T03:08:20.216Z,1004.9
2018-08-30T03:09:21.576Z,1004.9
2018-08-30T03:10:22.940Z,1004.8
2018-08-30T03:11:24.306Z,1004.9
2018-08-30T03:12:25.659Z,1004.8
2018-08-30T03:13:27.025Z,1004.9
2018-08-30T03:14:28.386Z,1004.9
2018-08-30T03:15:29.745Z,1004.9
2018-08-30T03:16:31.134Z,1004.9
2018-08-30T03:17:32.495Z,1004.9
2018-08-30T03:18:33.859Z,1004.9
2018-08-30T03:19:35.224Z,1004.9
2018-08-30T03:20:36.583Z,1004.9
2018-08-30T03:21:37.944Z,1004.9
2018-08-30T03:22:39.315Z,1004.8
2018-08-30T03:23:40.665Z,1004.9
2018-08-30T03:24:42.034Z,1004.9
2018-08-30T03:25:43.416Z,1004.9
2018-08-30T03:26:44.775Z,1004.9
2018-08-30T03:27:46.141Z,1004.9
2018-08-30T03:28:48.054Z,1004.9
2018-08-30T03:29:49.413Z,1004.9
2018-08-30T03:30:50.945Z,1004.9
2018-08-30T03:31:52.278Z,1004.9
2018-08-30T03:32:53.644Z,1004.9
2018-08-30T03:33:54.999Z,1004.9
2018-08-30T03:34:56.366Z,1004.9
2018-08-30T03:35:57.714Z,1004.9
2018-08-30T03:36:59.084Z,1004.9
2018-08-30T03:38:00.444Z,1004.8
2018-08-30T03:39:01.799Z,1004.8
2018-08-30T03:40:03.170Z,1004.9
2018-08-30T03:41:04.529Z,1004.9
2018-08-30T03:42:05.881Z,1004.9
2018-08-30T03:43:07.248Z,1004.9
2018-08-30T03:44:08.600Z,1005.0
2018-08-30T03:45:09.968Z,1004.9
2018-08-30T03:46:11.325Z,1005.0
2018-08-30T03:47:12.691Z,1005.0
2018-08-30T03:48:14.054Z,1005.0
2018-08-30T03:49:15.414Z,1005.0
2018-08-30T03:50:16.793Z,1005.0
2018-08-30T03:51:18.151Z,1005.0
2018-08-30T03:52:19.521Z,1005.0
2018-08-30T03:53:20.885Z,1005.1
2018-08-30T03:54:22.236Z,1005.1
2018-08-30T03:55:23.605Z,1005.0
2018-08-30T03:56:24.958Z,1005.0
2018-08-30T03:57:26.330Z,1005.0
2018-08-30T03:58:27.685Z,1005.0
2018-08-30T03:59:29.059Z,1005.0
2018-08-30T04:00:30.414Z,1005.0
2018-08-30T04:01:31.790Z,1005.0
2018-08-30T04:02:33.145Z,1005.0
2018-08-30T04:03:34.505Z,1005.0
2018-08-30T04:04:35.908Z,1005.0
2018-08-30T04:05:37.285Z,1005.0
2018-08-30T04:06:38.658Z,1005.1
2018-08-30T04:07:40.010Z,1005.0
2018-08-30T04:08:41.376Z,1005.0
2018-08-30T04:09:42.740Z,1005.0
2018-08-30T04:10:44.100Z,1005.0
2018-08-30T04:11:45.458Z,1005.1
2018-08-30T04:12:46.815Z,1005.1
2018-08-30T04:13:48.171Z,1005.1
2018-08-30T04:14:49.544Z,1005.1
2018-08-30T04:15:50.901Z,1005.1
2018-08-30T04:16:52.304Z,1005.1
2018-08-30T04:17:53.619Z,1005.2
2018-08-30T04:18:54.990Z,1005.2
2018-08-30T04:19:56.346Z,1005.2
2018-08-30T04:20:57.715Z,1005.2
2018-08-30T04:21:59.140Z,1005.2
2018-08-30T04:23:00.450Z,1005.2
2018-08-30T04:24:01.822Z,1005.2
2018-08-30T04:25:03.184Z,1005.2
2018-08-30T04:26:04.531Z,1005.3
2018-08-30T04:27:05.955Z,1005.2
2018-08-30T04:28:07.265Z,1005.3
2018-08-30T04:29:08.631Z,1005.3
2018-08-30T04:30:09.991Z,1005.3
2018-08-30T04:31:11.351Z,1005.3
2018-08-30T04:32:12.718Z,1005.3
2018-08-30T04:33:14.062Z,1005.3
2018-08-30T04:34:15.432Z,1005.3
2018-08-30T04:35:16.801Z,1005.3
2018-08-30T04:36:18.166Z,1005.3
2018-08-30T04:37:19.536Z,1005.3
2018-08-30T04:38:20.896Z,1005.3
2018-08-30T04:39:22.264Z,1005.4
2018-08-30T04:40:23.634Z,1005.4
2018-08-30T04:41:25.000Z,1005.4
2018-08-30T04:42:26.467Z,1005.4
2018-08-30T04:43:27.744Z,1005.4
2018-08-30T04:44:29.115Z,1005.4
2018-08-30T04:45:30.477Z,1005.4
2018-08-30T04:46:47.225Z,1005.4
2018-08-30T04:47:48.617Z,1005.4
2018-08-30T04:49:17.787Z,1005.5
2018-08-30T04:50:22.176Z,1005.5
2018-08-30T04:51:23.506Z,1005.5
2018-08-30T04:52:24.880Z,1005.5
2018-08-30T04:53:26.257Z,1005.5
2018-08-30T04:54:27.619Z,1005.5
2018-08-30T04:55:28.983Z,1005.6
2018-08-30T04:56:30.364Z,1005.5
2018-08-30T04:57:31.720Z,1005.5
2018-08-30T04:58:33.080Z,1005.6
2018-08-30T04:59:34.446Z,1005.6
2018-08-30T05:00:35.809Z,1005.6
2018-08-30T05:01:37.184Z,1005.6
2018-08-30T05:02:38.535Z,1005.6
2018-08-30T05:03:39.899Z,1005.6
2018-08-30T05:04:41.266Z,1005.6
2018-08-30T05:05:42.635Z,1005.6
2018-08-30T05:06:44.000Z,1005.7
2018-08-30T05:07:45.372Z,1005.7
2018-08-30T05:08:46.740Z,1005.7
2018-08-30T05:09:48.109Z,1005.7
2018-08-30T05:10:49.456Z,1005.7
2018-08-30T05:11:50.820Z,1005.7
2018-08-30T05:12:52.211Z,1005.7
2018-08-30T05:13:53.583Z,1005.7
2018-08-30T05:14:54.940Z,1005.7
2018-08-30T05:15:56.315Z,1005.7
2018-08-30T05:16:57.670Z,1005.8
2018-08-30T05:17:59.036Z,1005.7
2018-08-30T05:19:00.400Z,1005.8
2018-08-30T05:20:01.767Z,1005.8
2018-08-30T05:21:03.127Z,1005.8
2018-08-30T05:22:04.523Z,1005.8
2018-08-30T05:23:05.957Z,1005.8
2018-08-30T05:24:07.257Z,1005.8
2018-08-30T05:25:08.631Z,1005.8
2018-08-30T05:26:10.003Z,1005.8
2018-08-30T05:27:11.369Z,1005.9
2018-08-30T05:28:12.742Z,1005.9
2018-08-30T05:29:14.103Z,1005.9
2018-08-30T05:30:15.472Z,1005.9
2018-08-30T05:31:16.841Z,1005.9
2018-08-30T05:32:18.218Z,1005.9
2018-08-30T05:33:20.172Z,1005.9
2018-08-30T05:34:21.542Z,1006.0
2018-08-30T05:35:22.906Z,1006.0
2018-08-30T05:36:24.260Z,1005.9
2018-08-30T05:37:25.630Z,1006.0
2018-08-30T05:38:27.007Z,1006.0
2018-08-30T05:39:28.369Z,1006.0
2018-08-30T05:40:29.741Z,1006.0
2018-08-30T05:41:31.112Z,1006.0
2018-08-30T05:42:32.503Z,1006.1
2018-08-30T05:43:33.877Z,1006.1
2018-08-30T05:44:35.309Z,1006.1
2018-08-30T05:45:36.620Z,1006.2
2018-08-30T05:46:37.988Z,1006.2
2018-08-30T05:47:39.363Z,1006.2
2018-08-30T05:48:40.731Z,1006.2
2018-08-30T05:49:42.108Z,1006.2
2018-08-30T05:50:43.479Z,1006.2
2018-08-30T05:51:44.895Z,1006.2
2018-08-30T05:52:46.272Z,1006.2
2018-08-30T05:53:47.643Z,1006.2
2018-08-30T05:54:49.019Z,1006.3
2018-08-30T05:55:50.381Z,1006.3
2018-08-30T05:56:51.785Z,1006.3
2018-08-30T05:57:53.126Z,1006.3
2018-08-30T05:58:54.488Z,1006.3
2018-08-30T05:59:55.858Z,1006.4
2018-08-30T06:00:57.222Z,1006.5
2018-08-30T06:01:58.587Z,1006.4
2018-08-30T06:03:00.109Z,1006.4
2018-08-30T06:04:01.452Z,1006.5
2018-08-30T06:05:02.817Z,1006.6
2018-08-30T06:06:04.177Z,1006.6
2018-08-30T06:07:05.584Z,1006.6
2018-08-30T06:08:07.062Z,1006.5
2018-08-30T06:09:08.442Z,1006.5
2018-08-30T06:10:09.812Z,1006.5
2018-08-30T06:11:11.173Z,1006.5
2018-08-30T06:12:12.545Z,1006.5
2018-08-30T06:13:13.990Z,1006.5
2018-08-30T06:14:15.255Z,1006.6
2018-08-30T06:15:16.611Z,1006.6
2018-08-30T06:16:17.998Z,1006.6
2018-08-30T06:17:19.378Z,1006.6
2018-08-30T06:18:20.756Z,1006.7
2018-08-30T06:19:22.133Z,1006.6
2018-08-30T06:20:23.499Z,1006.6
2018-08-30T06:21:24.872Z,1006.7
2018-08-30T06:22:26.258Z,1006.6
2018-08-30T06:23:27.612Z,1006.7
2018-08-30T06:24:28.991Z,1006.7
2018-08-30T06:25:30.361Z,1006.7
2018-08-30T06:26:31.732Z,1006.7
2018-08-30T06:27:33.093Z,1006.7
2018-08-30T06:28:34.463Z,1006.7
2018-08-30T06:29:35.834Z,1006.7
2018-08-30T06:30:37.202Z,1006.7
2018-08-30T06:31:38.583Z,1006.7
2018-08-30T06:32:39.988Z,1006.9
2018-08-30T06:33:41.322Z,1006.7
2018-08-30T06:34:42.692Z,1006.7
2018-08-30T06:35:44.063Z,1006.9
2018-08-30T06:36:45.430Z,1007.1
2018-08-30T06:37:46.809Z,1006.9
2018-08-30T06:38:48.283Z,1007.0
2018-08-30T06:39:49.513Z,1006.9
2018-08-30T06:40:50.913Z,1006.9
2018-08-30T06:41:52.306Z,1006.9
2018-08-30T06:42:53.676Z,1006.9
2018-08-30T06:43:55.056Z,1007.1
2018-08-30T06:44:56.428Z,1007.2
2018-08-30T06:45:57.801Z,1007.4
2018-08-30T06:46:59.184Z,1007.4
2018-08-30T06:48:00.551Z,1007.4
2018-08-30T06:49:01.986Z,1007.2
2018-08-30T06:50:03.296Z,1007.4
2018-08-30T06:51:04.664Z,1007.3
2018-08-30T06:52:06.033Z,1007.3
2018-08-30T06:53:07.412Z,1007.2
2018-08-30T06:54:08.795Z,1007.4
2018-08-30T06:55:10.162Z,1007.3
2018-08-30T06:56:11.540Z,1007.4
2018-08-30T06:57:12.907Z,1007.4
2018-08-30T06:58:14.279Z,1007.4
2018-08-30T06:59:15.657Z,1007.2
2018-08-30T07:00:17.687Z,1007.3
2018-08-30T07:01:18.354Z,1007.4
2018-08-30T07:02:19.734Z,1007.3
2018-08-30T07:03:21.146Z,1007.3
2018-08-30T07:04:22.548Z,1007.4
2018-08-30T07:05:23.864Z,1007.3
2018-08-30T07:06:25.231Z,1007.1
2018-08-30T07:07:26.603Z,1007.1
2018-08-30T07:08:27.983Z,1007.1
2018-08-30T07:09:29.381Z,1007.0
2018-08-30T07:10:30.754Z,1006.9
2018-08-30T07:11:32.117Z,1007.0
2018-08-30T07:12:33.493Z,1007.1
2018-08-30T07:13:34.872Z,1007.0
2018-08-30T07:14:36.264Z,1007.1
2018-08-30T07:20:49.681Z,1007.1
2018-08-30T07:21:51.057Z,1007.1
2018-08-30T07:22:52.453Z,1007.1
2018-08-30T07:23:54.389Z,1007.2
2018-08-30T07:24:55.782Z,1007.3
2018-08-30T07:25:57.165Z,1007.4
2018-08-30T07:26:59.061Z,1007.3
2018-08-30T07:28:40.092Z,1007.5
2018-08-30T07:29:41.377Z,1007.5
2018-08-30T07:31:02.854Z,1007.5
2018-08-30T07:32:04.235Z,1007.5
2018-08-30T07:33:05.608Z,1007.4
2018-08-30T07:34:07.034Z,1007.5
2018-08-30T07:35:08.407Z,1008.0
2018-08-30T07:36:09.688Z,1007.6
2018-08-30T07:37:11.058Z,1007.8
2018-08-30T07:38:12.449Z,1007.5
2018-08-30T07:39:13.798Z,1007.5
2018-08-30T07:40:15.166Z,1007.5
2018-08-30T07:41:16.564Z,1007.5
2018-08-30T07:42:17.937Z,1007.4
2018-08-30T07:43:19.314Z,1007.4
2018-08-30T07:44:20.864Z,1007.4
2018-08-30T07:45:22.090Z,1007.5
2018-08-30T07:46:23.498Z,1007.5
2018-08-30T07:47:24.888Z,1007.7
2018-08-30T07:48:26.254Z,1007.6
2018-08-30T07:49:27.660Z,1007.6
2018-08-30T07:50:29.059Z,1007.7
2018-08-30T07:51:30.413Z,1007.6
2018-08-30T07:52:31.816Z,1007.7
2018-08-30T07:53:33.229Z,1007.7
2018-08-30T07:54:34.719Z,1007.6
2018-08-30T07:55:35.960Z,1007.6
2018-08-30T07:56:37.349Z,1007.7
2018-08-30T07:57:38.742Z,1007.7
2018-08-30T07:58:40.130Z,1007.8
2018-08-30T07:59:41.544Z,1007.8
2018-08-30T08:00:42.939Z,1007.8
2018-08-30T08:01:44.313Z,1007.8
2018-08-30T08:02:45.709Z,1007.9
2018-08-30T08:03:47.147Z,1007.9
2018-08-30T08:04:48.582Z,1007.9
2018-08-30T08:05:49.986Z,1008.0
2018-08-30T08:06:51.332Z,1008.0
2018-08-30T08:07:52.715Z,1008.1
2018-08-30T08:08:54.091Z,1008.1
2018-08-30T08:09:55.463Z,1008.2
2018-08-30T08:10:56.844Z,1008.2
2018-08-30T08:11:58.262Z,1008.2
2018-08-30T08:12:59.597Z,1008.2
2018-08-30T08:14:00.968Z,1008.2
2018-08-30T08:15:02.360Z,1008.2
2018-08-30T08:16:03.733Z,1008.1
2018-08-30T08:17:05.108Z,1008.2
2018-08-30T08:18:06.480Z,1008.2
2018-08-30T08:19:07.933Z,1008.3
2018-08-30T08:20:09.187Z,1008.3
2018-08-30T08:21:10.560Z,1008.4
2018-08-30T08:22:11.954Z,1008.5
2018-08-30T08:23:13.325Z,1008.4
2018-08-30T08:24:14.690Z,1008.4
2018-08-30T08:25:16.119Z,1008.7
2018-08-30T08:26:17.449Z,1008.9
2018-08-30T08:27:18.819Z,1008.9
2018-08-30T08:28:20.200Z,1008.6
2018-08-30T08:29:21.584Z,1008.7
2018-08-30T08:30:22.964Z,1008.8
2018-08-30T08:31:24.384Z,1008.3
2018-08-30T08:32:25.679Z,1008.4
2018-08-30T08:33:27.059Z,1008.4
2018-08-30T08:34:28.440Z,1008.4
2018-08-30T08:35:29.815Z,1008.5
2018-08-30T08:36:31.201Z,1008.6
2018-08-30T08:37:32.607Z,1008.7
2018-08-30T08:38:33.996Z,1009.0
2018-08-30T08:39:35.369Z,1008.6
2018-08-30T08:40:36.744Z,1008.6
2018-08-30T08:41:38.138Z,1008.5
2018-08-30T08:42:39.530Z,1008.5
2018-08-30T08:43:40.898Z,1008.5
2018-08-30T08:44:42.275Z,1008.8
2018-08-30T08:45:43.654Z,1008.6
2018-08-30T08:46:45.023Z,1008.5
2018-08-30T08:47:46.484Z,1008.5
2018-08-30T08:48:47.735Z,1008.7
2018-08-30T08:49:49.119Z,1008.6
2018-08-30T08:50:50.493Z,1008.6
2018-08-30T08:51:51.893Z,1008.6
2018-08-30T08:52:53.266Z,1008.8
2018-08-30T08:53:54.669Z,1008.9
2018-08-30T08:54:55.978Z,1008.8
2018-08-30T08:55:57.368Z,1008.8
2018-08-30T08:56:58.739Z,1008.7
2018-08-30T08:58:00.115Z,1008.7
2018-08-30T08:59:01.693Z,1008.8
2018-08-30T09:00:02.864Z,1009.4
2018-08-30T09:01:04.239Z,1008.8
2018-08-30T09:02:05.784Z,1009.2
2018-08-30T09:03:07.160Z,1009.1
2018-08-30T09:04:08.539Z,1008.7
2018-08-30T09:05:09.911Z,1008.9
2018-08-30T09:06:11.285Z,1009.0
2018-08-30T09:07:12.709Z,1008.9
2018-08-30T09:08:14.041Z,1009.3
2018-08-30T09:09:15.424Z,1009.1
2018-08-30T09:10:16.831Z,1008.9
2018-08-30T09:11:18.264Z,1008.7
2018-08-30T09:12:19.636Z,1008.7
2018-08-30T09:13:21.013Z,1008.7
2018-08-30T09:14:22.453Z,1008.7
2018-08-30T09:15:23.772Z,1008.6
2018-08-30T09:16:25.149Z,1008.6
2018-08-30T09:17:26.523Z,1008.6
2018-08-30T09:18:27.945Z,1008.6
2018-08-30T09:19:29.251Z,1008.5
2018-08-30T09:20:30.636Z,1008.5
2018-08-30T09:21:32.083Z,1008.5
2018-08-30T09:22:33.490Z,1008.5
2018-08-30T09:23:34.895Z,1008.5
2018-08-30T09:24:36.277Z,1008.5
2018-08-30T09:25:37.653Z,1008.5
2018-08-30T09:26:39.076Z,1008.5
2018-08-30T09:27:40.411Z,1008.5
2018-08-30T09:28:41.786Z,1008.5
2018-08-30T09:29:43.221Z,1008.6
2018-08-30T09:30:44.592Z,1008.6
2018-08-30T09:31:45.986Z,1008.5
2018-08-30T09:32:47.368Z,1008.5
2018-08-30T09:33:48.796Z,1008.5
2018-08-30T09:34:50.255Z,1008.5
2018-08-30T09:35:51.625Z,1008.5
2018-08-30T09:36:53.012Z,1008.5
2018-08-30T09:37:54.417Z,1008.5
2018-08-30T09:38:55.785Z,1008.6
2018-08-30T09:39:57.175Z,1008.6
2018-08-30T09:40:58.545Z,1008.5
2018-08-30T09:41:59.919Z,1008.5
2018-08-30T09:43:01.300Z,1008.5
2018-08-30T09:44:03.402Z,1008.5
2018-08-30T09:45:04.800Z,1008.4
2018-08-30T09:46:06.193Z,1008.4
2018-08-30T09:47:07.564Z,1008.4
2018-08-30T09:48:08.934Z,1008.4
2018-08-30T09:49:10.314Z,1008.4
2018-08-30T09:50:11.674Z,1008.4
2018-08-30T09:51:13.049Z,1008.4
2018-08-30T09:52:14.421Z,1008.5
2018-08-30T09:53:15.805Z,1008.5
2018-08-30T09:54:17.848Z,1008.5
2018-08-30T09:55:19.214Z,1008.5
2018-08-30T09:56:20.594Z,1008.5
2018-08-30T09:57:22.126Z,1008.5
2018-08-30T09:58:23.296Z,1008.6
2018-08-30T09:59:24.660Z,1008.6
2018-08-30T10:00:26.034Z,1008.6
2018-08-30T10:01:27.408Z,1008.5
2018-08-30T10:02:28.778Z,1008.5
2018-08-30T10:03:30.145Z,1008.5
2018-08-30T10:04:31.560Z,1008.6
2018-08-30T10:05:32.904Z,1008.5
2018-08-30T10:06:34.325Z,1008.5
2018-08-30T10:07:35.695Z,1008.5
2018-08-30T10:08:37.068Z,1008.5
2018-08-30T10:09:38.441Z,1008.5
2018-08-30T10:10:39.814Z,1008.5
2018-08-30T10:11:41.189Z,1008.6
2018-08-30T10:12:42.578Z,1008.6
2018-08-30T10:13:43.948Z,1008.5
2018-08-30T10:14:45.321Z,1008.6
2018-08-30T10:15:46.761Z,1008.6
2018-08-30T10:16:48.080Z,1008.7
2018-08-30T10:17:49.440Z,1008.7
2018-08-30T10:18:50.818Z,1008.6
2018-08-30T10:19:52.199Z,1008.7
2018-08-30T10:20:53.576Z,1008.7
2018-08-30T10:21:54.939Z,1008.7
2018-08-30T10:22:56.319Z,1008.7
2018-08-30T10:23:57.682Z,1008.8
2018-08-30T10:24:59.053Z,1008.9
2018-08-30T10:26:00.425Z,1008.9
2018-08-30T10:27:01.797Z,1009.0
2018-08-30T10:28:03.167Z,1009.0
2018-08-30T10:29:04.706Z,1009.0
2018-08-30T10:30:06.086Z,1009.0
2018-08-30T10:31:07.452Z,1009.0
2018-08-30T10:32:08.825Z,1009.0
2018-08-30T10:33:10.204Z,1009.0
2018-08-30T10:34:11.580Z,1008.9
2018-08-30T10:35:12.945Z,1008.8
2018-08-30T10:36:14.327Z,1008.7
2018-08-30T10:37:15.697Z,1008.8
2018-08-30T10:38:17.084Z,1008.8
2018-08-30T10:39:18.489Z,1009.0
2018-08-30T10:40:19.874Z,1009.0
2018-08-30T10:41:21.317Z,1008.9
2018-08-30T10:42:22.696Z,1009.0
2018-08-30T10:43:24.065Z,1009.0
2018-08-30T10:44:25.456Z,1009.0
2018-08-30T10:45:26.830Z,1009.0
2018-08-30T10:46:28.214Z,1009.0
2018-08-30T10:47:29.591Z,1009.1
2018-08-30T10:48:30.974Z,1009.1
2018-08-30T10:49:32.449Z,1009.1
2018-08-30T10:50:33.715Z,1009.1
2018-08-30T10:51:35.110Z,1009.1
2018-08-30T10:52:36.479Z,1009.1
2018-08-30T10:53:37.866Z,1008.9
2018-08-30T10:54:39.250Z,1008.8
2018-08-30T10:55:40.635Z,1008.9
2018-08-30T10:56:42.022Z,1008.9
2018-08-30T10:57:43.402Z,1009.2
2018-08-30T10:58:44.785Z,1009.2
2018-08-30T10:59:46.206Z,1008.9
2018-08-30T11:00:47.597Z,1009.0
2018-08-30T11:01:49.668Z,1009.0
2018-08-30T11:02:51.066Z,1009.2
2018-08-30T11:03:52.513Z,1009.0
2018-08-30T11:04:53.866Z,1008.8
2018-08-30T11:05:55.256Z,1008.6
2018-08-30T11:06:56.657Z,1008.7
2018-08-30T11:07:58.049Z,1008.7
2018-08-30T11:08:59.427Z,1008.8
2018-08-30T11:10:00.842Z,1008.8
2018-08-30T11:11:02.842Z,1008.7
2018-08-30T11:12:04.240Z,1008.6
2018-08-30T11:13:05.695Z,1008.5
2018-08-30T11:14:06.957Z,1008.4
2018-08-30T11:15:08.355Z,1008.4
2018-08-30T11:16:09.740Z,1008.5
2018-08-30T11:17:11.115Z,1008.5
2018-08-30T11:18:12.492Z,1008.5
2018-08-30T11:19:13.909Z,1008.4
2018-08-30T11:20:15.255Z,1008.4
2018-08-30T11:21:16.622Z,1008.4
2018-08-30T11:22:18.011Z,1008.5
2018-08-30T11:23:19.408Z,1008.6
2018-08-30T11:24:20.787Z,1008.7
2018-08-30T11:25:22.170Z,1008.6
2018-08-30T11:26:23.562Z,1008.7
2018-08-30T11:27:24.951Z,1008.7
2018-08-30T11:28:26.319Z,1008.8
2018-08-30T11:29:27.721Z,1008.7
2018-08-30T11:30:29.086Z,1008.7
2018-08-30T11:31:30.482Z,1008.5
2018-08-30T11:32:31.860Z,1008.6
2018-08-30T11:33:33.247Z,1008.7
2018-08-30T11:34:34.691Z,1008.8
2018-08-30T11:35:36.080Z,1008.8
2018-08-30T11:36:37.453Z,1008.7
2018-08-30T11:37:38.840Z,1008.7
2018-08-30T11:38:40.222Z,1008.7
2018-08-30T11:39:41.657Z,1008.6
2018-08-30T11:40:43.055Z,1008.6
2018-08-30T11:41:44.482Z,1008.5
2018-08-30T11:42:45.858Z,1008.5
2018-08-30T11:43:47.233Z,1008.6
2018-08-30T11:44:48.578Z,1008.6
2018-08-30T11:45:49.958Z,1008.6
2018-08-30T11:46:51.376Z,1008.6
2018-08-30T11:47:52.751Z,1008.6
2018-08-30T11:48:54.138Z,1008.5
2018-08-30T11:49:55.502Z,1008.6
2018-08-30T11:50:56.877Z,1008.6
2018-08-30T11:51:58.263Z,1008.6
2018-08-30T11:52:59.640Z,1008.6
2018-08-30T11:54:01.010Z,1008.6
2018-08-30T11:55:02.437Z,1008.4
2018-08-30T11:56:03.803Z,1008.5
2018-08-30T11:57:05.187Z,1008.4
2018-08-30T11:58:06.559Z,1008.5
2018-08-30T11:59:07.938Z,1008.5
2018-08-30T12:00:09.310Z,1008.5
2018-08-30T12:01:10.685Z,1009.0
2018-08-30T12:02:12.071Z,1008.6
2018-08-30T12:03:13.455Z,1008.6
2018-08-30T12:04:14.841Z,1008.9
2018-08-30T12:05:16.235Z,1008.7
2018-08-30T12:06:17.624Z,1008.4
2018-08-30T12:07:19.003Z,1008.6
2018-08-30T12:08:20.435Z,1008.9
2018-08-30T12:09:21.722Z,1008.7
2018-08-30T12:10:23.157Z,1008.8
2018-08-30T12:11:24.554Z,1008.7
2018-08-30T12:12:25.881Z,1008.4
2018-08-30T12:13:27.270Z,1008.4
2018-08-30T12:14:28.648Z,1008.7
2018-08-30T12:15:30.049Z,1008.4
2018-08-30T12:16:31.428Z,1008.5
2018-08-30T12:17:32.910Z,1008.5
2018-08-30T12:18:34.293Z,1008.6
2018-08-30T12:19:35.671Z,1008.8
2018-08-30T12:20:37.137Z,1008.6
2018-08-30T12:21:38.441Z,1008.8
2018-08-30T12:22:39.831Z,1008.6
2018-08-30T12:23:41.216Z,1008.4
2018-08-30T12:24:42.626Z,1008.5
2018-08-30T12:25:44.021Z,1008.5
2018-08-30T12:26:45.596Z,1008.5
2018-08-30T12:27:47.014Z,1008.4
2018-08-30T12:28:48.493Z,1008.5
2018-08-30T12:29:49.768Z,1008.6
2018-08-30T12:30:51.146Z,1008.6
2018-08-30T12:31:52.550Z,1008.6
2018-08-30T12:32:54.115Z,1008.6
2018-08-30T12:33:55.478Z,1008.6
2018-08-30T12:34:56.769Z,1008.6
2018-08-30T12:35:58.266Z,1008.6
2018-08-30T12:36:59.482Z,1008.8
2018-08-30T12:38:00.854Z,1008.6
2018-08-30T12:39:02.268Z,1008.6
2018-08-30T12:40:03.751Z,1008.7
2018-08-30T12:41:05.126Z,1008.7
2018-08-30T12:42:06.522Z,1008.6
2018-08-30T12:43:07.867Z,1008.7
2018-08-30T12:44:09.211Z,1008.6
2018-08-30T12:45:10.623Z,1008.5
2018-08-30T12:46:11.979Z,1008.5
2018-08-30T12:47:13.373Z,1008.5
2018-08-30T12:48:14.772Z,1008.6
2018-08-30T12:49:16.139Z,1008.5
2018-08-30T12:50:17.627Z,1008.5
2018-08-30T12:51:19.047Z,1008.5
2018-08-30T12:52:20.339Z,1008.4